sensor_id;sensor_type;location;lat;lon;timestamp;pressure;altitude;pressure_sealevel;temperature;humidity
41573;BME280;27286;47.870;19.006;2024-01-15T16:10:57;97653.81;;;1.05;63.78
41573;BME280;27286;47.870;19.006;2024-01-15T16:13:24;97653.03;;;1.03;64.27
41573;BME280;27286;47.870;19.006;2024-01-15T16:15:49;97662.13;;;1.12;63.69
41573;BME280;27286;47.870;19.006;2024-01-15T16:18:14;97677.13;;;1.24;63.14
41573;BME280;27286;47.870;19.006;2024-01-15T16:20:40;97684.94;;;1.21;64.11
41573;BME280;27286;47.870;19.006;2024-01-15T16:23:07;97676.88;;;1.32;63.07
41573;BME280;27286;47.870;19.006;2024-01-15T16:25:32;97686.28;;;1.31;63.60
41573;BME280;27286;47.870;19.006;2024-01-15T16:28:03;97653.72;;;1.08;64.06
41573;BME280;27286;47.870;19.006;2024-01-15T16:30:29;97687.34;;;1.26;64.83
41573;BME280;27286;47.870;19.006;2024-01-15T16:32:54;97694.47;;;1.16;64.69
41573;BME280;27286;47.870;19.006;2024-01-15T16:35:19;97690.44;;;1.09;65.07
41573;BME280;27286;47.870;19.006;2024-01-15T16:37:45;97685.50;;;1.03;65.78
41573;BME280;27286;47.870;19.006;2024-01-15T16:40:11;97698.38;;;1.01;66.00
41573;BME280;27286;47.870;19.006;2024-01-15T16:42:36;97693.63;;;1.15;65.63
41573;BME280;27286;47.870;19.006;2024-01-15T16:45:02;97695.59;;;1.07;65.75
41573;BME280;27286;47.870;19.006;2024-01-15T16:47:28;97689.97;;;1.24;64.54
41573;BME280;27286;47.870;19.006;2024-01-15T16:49:53;97707.22;;;1.17;65.26
41573;BME280;27286;47.870;19.006;2024-01-15T16:52:19;97705.84;;;1.07;65.72
41573;BME280;27286;47.870;19.006;2024-01-15T16:54:44;97698.31;;;1.03;66.40
41573;BME280;27286;47.870;19.006;2024-01-15T16:57:10;97701.63;;;1.06;66.15
41573;BME280;27286;47.870;19.006;2024-01-15T16:59:35;97712.81;;;1.04;66.46
41573;BME280;27286;47.870;19.006;2024-01-15T17:02:01;97722.22;;;1.03;65.95
41573;BME280;27286;47.870;19.006;2024-01-15T17:04:26;97713.75;;;1.01;66.99
41573;BME280;27286;47.870;19.006;2024-01-15T17:06:52;97714.59;;;1.00;67.34
41573;BME280;27286;47.870;19.006;2024-01-15T17:09:17;97720.72;;;0.96;67.12
41573;BME280;27286;47.870;19.006;2024-01-15T17:11:42;97712.25;;;0.94;67.49
41573;BME280;27286;47.870;19.006;2024-01-15T17:14:08;97724.94;;;0.97;67.55
41573;BME280;27286;47.870;19.006;2024-01-15T17:16:33;97725.41;;;0.82;68.69
41573;BME280;27286;47.870;19.006;2024-01-15T17:18:59;97718.41;;;0.88;69.02
41573;BME280;27286;47.870;19.006;2024-01-15T17:21:24;97712.66;;;0.80;69.39
41573;BME280;27286;47.870;19.006;2024-01-15T17:23:50;97702.09;;;0.91;68.76
41573;BME280;27286;47.870;19.006;2024-01-15T17:26:15;97718.16;;;0.67;70.08
41573;BME280;27286;47.870;19.006;2024-01-15T17:28:41;97706.69;;;0.80;69.93
41573;BME280;27286;47.870;19.006;2024-01-15T17:31:06;97703.91;;;0.58;71.10
41573;BME280;27286;47.870;19.006;2024-01-15T17:33:31;97716.50;;;0.66;71.20
41573;BME280;27286;47.870;19.006;2024-01-15T17:35:57;97717.97;;;1.02;69.34
41573;BME280;27286;47.870;19.006;2024-01-15T17:38:24;97720.47;;;0.76;70.52
41573;BME280;27286;47.870;19.006;2024-01-15T17:40:49;97713.88;;;0.67;70.87
41573;BME280;27286;47.870;19.006;2024-01-15T17:43:16;97712.69;;;0.49;71.63
41573;BME280;27286;47.870;19.006;2024-01-15T17:45:41;97706.22;;;0.38;72.45
41573;BME280;27286;47.870;19.006;2024-01-15T17:48:07;97700.38;;;0.33;72.88
41573;BME280;27286;47.870;19.006;2024-01-15T17:50:34;97700.53;;;0.26;73.30
41573;BME280;27286;47.870;19.006;2024-01-15T17:53:00;97707.19;;;0.32;72.88
41573;BME280;27286;47.870;19.006;2024-01-15T17:55:28;97713.22;;;0.31;72.72
41573;BME280;27286;47.870;19.006;2024-01-15T17:57:53;97714.00;;;0.33;72.99
41573;BME280;27286;47.870;19.006;2024-01-15T18:00:19;97723.56;;;0.57;71.46
41573;BME280;27286;47.870;19.006;2024-01-15T18:02:45;97720.13;;;0.58;71.95
41573;BME280;27286;47.870;19.006;2024-01-15T18:05:11;97713.66;;;0.75;71.12
41573;BME280;27286;47.870;19.006;2024-01-15T18:07:36;97710.53;;;0.65;71.07
41573;BME280;27286;47.870;19.006;2024-01-15T18:10:02;97726.28;;;0.53;71.76
41573;BME280;27286;47.870;19.006;2024-01-15T18:12:28;97726.53;;;0.73;70.73
41573;BME280;27286;47.870;19.006;2024-01-15T18:14:53;97731.06;;;0.64;71.64
41573;BME280;27286;47.870;19.006;2024-01-15T18:17:19;97732.34;;;0.78;70.96
41573;BME280;27286;47.870;19.006;2024-01-15T18:19:46;97712.59;;;0.54;71.40
41573;BME280;27286;47.870;19.006;2024-01-15T18:22:12;97697.06;;;0.58;71.07
41573;BME280;27286;47.870;19.006;2024-01-15T18:24:38;97694.25;;;0.38;72.40
41573;BME280;27286;47.870;19.006;2024-01-15T18:27:04;97670.53;;;0.32;72.58
41573;BME280;27286;47.870;19.006;2024-01-15T18:29:30;97670.94;;;0.47;72.13
41573;BME280;27286;47.870;19.006;2024-01-15T18:31:55;97684.38;;;0.55;72.01
41573;BME280;27286;47.870;19.006;2024-01-15T18:34:20;97700.16;;;0.40;72.43
41573;BME280;27286;47.870;19.006;2024-01-15T18:36:46;97722.50;;;0.34;72.86
41573;BME280;27286;47.870;19.006;2024-01-15T18:39:12;97726.88;;;0.30;73.20
41573;BME280;27286;47.870;19.006;2024-01-15T18:41:41;97720.41;;;0.48;72.33
41573;BME280;27286;47.870;19.006;2024-01-15T18:44:07;97711.91;;;0.47;71.75
41573;BME280;27286;47.870;19.006;2024-01-15T18:46:33;97730.31;;;0.60;71.96
41573;BME280;27286;47.870;19.006;2024-01-15T18:48:59;97722.13;;;0.47;72.16
41573;BME280;27286;47.870;19.006;2024-01-15T18:51:24;97710.94;;;0.51;71.80
41573;BME280;27286;47.870;19.006;2024-01-15T18:53:50;97695.97;;;0.38;71.97
41573;BME280;27286;47.870;19.006;2024-01-15T18:56:15;97716.88;;;0.53;72.44
41573;BME280;27286;47.870;19.006;2024-01-15T18:58:41;97722.03;;;0.52;72.49
41573;BME280;27286;47.870;19.006;2024-01-15T19:01:10;97731.06;;;0.64;71.30
41573;BME280;27286;47.870;19.006;2024-01-15T19:03:36;97729.53;;;0.58;72.15
41573;BME280;27286;47.870;19.006;2024-01-15T19:06:02;97735.25;;;0.37;72.82
41573;BME280;27286;47.870;19.006;2024-01-15T19:08:27;97716.63;;;0.61;71.50
41573;BME280;27286;47.870;19.006;2024-01-15T19:10:54;97727.72;;;0.30;73.32
41573;BME280;27286;47.870;19.006;2024-01-15T19:13:20;97723.72;;;0.22;73.65
41573;BME280;27286;47.870;19.006;2024-01-15T19:15:46;97730.97;;;0.06;75.05
41573;BME280;27286;47.870;19.006;2024-01-15T19:18:11;97752.78;;;0.50;73.59
41573;BME280;27286;47.870;19.006;2024-01-15T19:20:37;97756.88;;;0.25;73.88
41573;BME280;27286;47.870;19.006;2024-01-15T19:23:02;97750.72;;;0.01;74.87
41573;BME280;27286;47.870;19.006;2024-01-15T19:25:29;97749.09;;;-0.03;75.18
41573;BME280;27286;47.870;19.006;2024-01-15T19:27:55;97755.78;;;0.03;74.85
41573;BME280;27286;47.870;19.006;2024-01-15T19:30:20;97766.53;;;-0.19;75.90
41573;BME280;27286;47.870;19.006;2024-01-15T19:32:46;97765.28;;;-0.03;75.27
41573;BME280;27286;47.870;19.006;2024-01-15T19:35:11;97757.81;;;-0.10;75.81
41573;BME280;27286;47.870;19.006;2024-01-15T19:37:37;97771.44;;;-0.10;76.26
41573;BME280;27286;47.870;19.006;2024-01-15T19:40:04;97755.44;;;-0.18;76.37
41573;BME280;27286;47.870;19.006;2024-01-15T19:42:29;97769.13;;;-0.20;75.87
41573;BME280;27286;47.870;19.006;2024-01-15T19:44:55;97759.84;;;-0.23;76.54
41573;BME280;27286;47.870;19.006;2024-01-15T19:47:24;97761.72;;;-0.29;76.77
41573;BME280;27286;47.870;19.006;2024-01-15T19:49:49;97759.88;;;-0.24;76.65
41573;BME280;27286;47.870;19.006;2024-01-15T19:52:14;97769.16;;;0.12;74.96
41573;BME280;27286;47.870;19.006;2024-01-15T19:54:40;97774.44;;;0.39;73.45
41573;BME280;27286;47.870;19.006;2024-01-15T19:57:05;97795.84;;;0.04;75.31
41573;BME280;27286;47.870;19.006;2024-01-15T19:59:31;97787.06;;;0.45;73.89
41573;BME280;27286;47.870;19.006;2024-01-15T20:01:59;97785.25;;;0.17;74.48
41573;BME280;27286;47.870;19.006;2024-01-15T20:04:24;97779.44;;;0.11;74.82
41573;BME280;27286;47.870;19.006;2024-01-15T20:06:50;97783.25;;;-0.06;75.30
41573;BME280;27286;47.870;19.006;2024-01-15T20:09:15;97774.16;;;-0.16;76.05
41573;BME280;27286;47.870;19.006;2024-01-15T20:11:40;97773.16;;;-0.10;76.04
41573;BME280;27286;47.870;19.006;2024-01-15T20:14:07;97779.50;;;-0.25;76.60
